Time;durP1;ratioP1;P1;durP2;ratioP2;P2;SDS_P1;SDS_P2;PMS_P1;PMS_P2;Temp;Humidity;BMP_temperature;BMP_pressure;BME280_temperature;BME280_humidity;BME280_pressure;Samples;Min_cycle;Max_cycle;Signal;HPM_P1;HPM_P2
2021/03/27 00:02:18;;;;;;;7.77;3.70;;;;;;;;;;5017253;28;20542;-70
2021/03/27 00:05:03;;;;;;;5.43;3.77;;;;;;;;;;5016247;28;20512;-70
2021/03/27 00:07:39;;;;;;;6.33;3.53;;;;;;;;;;5016879;28;20405;-70
2021/03/27 00:10:12;;;;;;;5.97;3.40;;;;;;;;;;5014803;28;20524;-70
2021/03/27 00:12:43;;;;;;;6.20;3.70;;;;;;;;;;5016919;28;20403;-70
2021/03/27 00:15:28;;;;;;;7.27;3.40;;;;;;;;;;5015856;28;20808;-70
2021/03/27 00:17:58;;;;;;;8.07;3.40;;;;;;;;;;5015998;28;20420;-71
2021/03/27 00:20:35;;;;;;;5.73;3.30;;;;;;;;;;5015955;28;20445;-70
2021/03/27 00:23:04;;;;;;;9.47;4.43;;;;;;;;;;5015658;28;20426;-70
2021/03/27 00:25:30;;;;;;;6.97;3.70;;;;;;;;;;4995410;28;20414;-70
2021/03/27 00:28:09;;;;;;;8.00;4.87;;;;;;;;;;4996810;28;20422;-70
2021/03/27 00:30:58;;;;;;;7.13;4.53;;;;;;;;;;4996865;28;20486;-70
2021/03/27 00:33:26;;;;;;;9.90;4.17;;;;;;;;;;4994902;28;20476;-70
2021/03/27 00:35:54;;;;;;;5.80;4.27;;;;;;;;;;5015781;28;20411;-69
2021/03/27 00:38:26;;;;;;;5.63;3.37;;;;;;;;;;5014216;28;20430;-70
2021/03/27 00:40:53;;;;;;;6.23;3.50;;;;;;;;;;5015566;28;20510;-71
2021/03/27 00:43:24;;;;;;;5.60;2.97;;;;;;;;;;5014124;28;20425;-71
2021/03/27 00:45:59;;;;;;;5.43;3.20;;;;;;;;;;5015055;28;20408;-70
2021/03/27 00:48:29;;;;;;;8.63;3.43;;;;;;;;;;5013515;28;20452;-71
2021/03/27 00:51:01;;;;;;;6.50;2.80;;;;;;;;;;5016648;28;20521;-71
2021/03/27 00:53:47;;;;;;;4.47;2.80;;;;;;;;;;5014621;28;20483;-69
2021/03/27 00:56:17;;;;;;;3.90;2.60;;;;;;;;;;4996029;28;20416;-70
2021/03/27 00:58:45;;;;;;;4.23;2.90;;;;;;;;;;4994423;28;20480;-70
2021/03/27 01:01:12;;;;;;;5.80;2.57;;;;;;;;;;5013871;28;20616;-70
2021/03/27 01:03:40;;;;;;;6.77;3.10;;;;;;;;;;5015522;28;20436;-70
2021/03/27 01:06:08;;;;;;;8.03;2.97;;;;;;;;;;5015009;28;20440;-72
2021/03/27 01:08:34;;;;;;;4.43;3.03;;;;;;;;;;5015423;28;20414;-70
2021/03/27 01:11:03;;;;;;;9.57;4.00;;;;;;;;;;5013576;28;20447;-69
2021/03/27 01:13:45;;;;;;;7.57;3.67;;;;;;;;;;5013542;28;20517;-69
2021/03/27 01:16:15;;;;;;;4.77;3.13;;;;;;;;;;5014958;28;20429;-70
2021/03/27 01:18:46;;;;;;;4.30;2.80;;;;;;;;;;5017601;28;20489;-69
2021/03/27 01:21:13;;;;;;;7.30;3.70;;;;;;;;;;5016115;28;20426;-70
2021/03/27 01:23:40;;;;;;;4.60;2.97;;;;;;;;;;5015111;28;20545;-70
2021/03/27 01:26:09;;;;;;;4.50;3.27;;;;;;;;;;5016553;28;20438;-70
2021/03/27 01:28:38;;;;;;;4.37;2.50;;;;;;;;;;5018114;28;20416;-70
2021/03/27 01:31:28;;;;;;;5.70;2.80;;;;;;;;;;5030160;28;20433;-70
2021/03/27 01:33:59;;;;;;;4.47;2.80;;;;;;;;;;5026531;28;20467;-70
2021/03/27 01:36:31;;;;;;;9.60;3.30;;;;;;;;;;5015896;28;20783;-70
2021/03/27 01:39:11;;;;;;;5.40;3.10;;;;;;;;;;5015100;28;20407;-70
2021/03/27 01:41:40;;;;;;;7.20;3.73;;;;;;;;;;5014200;28;20944;-70
2021/03/27 01:44:09;;;;;;;5.50;3.10;;;;;;;;;;5014190;28;20425;-71
2021/03/27 01:46:53;;;;;;;6.27;2.83;;;;;;;;;;5013557;28;20948;-70
2021/03/27 01:49:49;;;;;;;4.60;3.13;;;;;;;;;;5013772;28;20438;-70
2021/03/27 01:52:34;;;;;;;7.33;3.63;;;;;;;;;;5010040;28;20420;-69
2021/03/27 01:55:18;;;;;;;6.90;3.73;;;;;;;;;;5013433;28;20476;-70
2021/03/27 01:58:01;;;;;;;5.20;3.17;;;;;;;;;;5017239;28;20433;-70
2021/03/27 02:00:37;;;;;;;6.60;3.20;;;;;;;;;;5019471;28;20422;-70
2021/03/27 02:03:24;;;;;;;5.20;3.37;;;;;;;;;;5019340;28;20919;-70
2021/03/27 02:06:25;;;;;;;5.63;3.17;;;;;;;;;;5018672;28;20426;-70
2021/03/27 02:09:11;;;;;;;6.37;3.40;;;;;;;;;;4998466;28;20824;-69
2021/03/27 02:11:46;;;;;;;6.27;3.10;;;;;;;;;;4998269;28;20423;-69
2021/03/27 02:14:15;;;;;;;5.97;4.43;;;;;;;;;;5001382;28;20556;-71
2021/03/27 02:16:52;;;;;;;3.40;2.73;;;;;;;;;;5002529;28;20949;-70
2021/03/27 02:19:27;;;;;;;6.60;3.17;;;;;;;;;;4998366;28;20907;-70
2021/03/27 02:22:19;;;;;;;7.80;3.83;;;;;;;;;;5015562;28;20515;-70
2021/03/27 02:25:04;;;;;;;5.20;3.50;;;;;;;;;;5009795;28;20878;-70
2021/03/27 02:27:49;;;;;;;6.97;3.10;;;;;;;;;;5017786;28;20422;-70
2021/03/27 02:30:23;;;;;;;3.90;3.20;;;;;;;;;;5017351;28;20425;-70
2021/03/27 02:32:49;;;;;;;5.63;3.27;;;;;;;;;;5016770;28;20433;-70
2021/03/27 02:35:21;;;;;;;6.53;3.37;;;;;;;;;;5015673;28;20425;-70
2021/03/27 02:37:58;;;;;;;4.80;3.40;;;;;;;;;;5017101;28;20876;-70
2021/03/27 02:40:28;;;;;;;4.93;2.97;;;;;;;;;;5015804;28;20456;-70
2021/03/27 02:43:00;;;;;;;3.77;2.80;;;;;;;;;;5010653;28;20999;-70
2021/03/27 02:45:41;;;;;;;4.53;3.03;;;;;;;;;;5002222;28;20430;-70
2021/03/27 02:48:19;;;;;;;7.60;3.17;;;;;;;;;;5015517;28;20417;-69
2021/03/27 02:51:01;;;;;;;5.70;3.17;;;;;;;;;;5009533;28;20950;-70
2021/03/27 02:53:39;;;;;;;5.27;2.90;;;;;;;;;;5010522;28;20460;-69
2021/03/27 02:56:05;;;;;;;4.40;3.20;;;;;;;;;;5012166;28;20919;-69
2021/03/27 02:58:34;;;;;;;6.20;3.13;;;;;;;;;;5013434;28;20419;-69
2021/03/27 03:01:05;;;;;;;7.50;3.27;;;;;;;;;;5011476;28;20545;-70
2021/03/27 03:03:31;;;;;;;7.50;3.90;;;;;;;;;;5013456;28;20429;-69
2021/03/27 03:06:01;;;;;;;6.37;3.70;;;;;;;;;;5012335;28;21035;-69
2021/03/27 03:08:43;;;;;;;5.87;3.20;;;;;;;;;;5013737;28;20816;-69
2021/03/27 03:11:13;;;;;;;6.00;3.63;;;;;;;;;;5016452;28;20439;-69
2021/03/27 03:13:48;;;;;;;5.27;3.27;;;;;;;;;;5017085;28;20543;-69
2021/03/27 03:16:20;;;;;;;4.83;3.27;;;;;;;;;;5013952;28;20429;-69
2021/03/27 03:18:46;;;;;;;4.90;3.10;;;;;;;;;;5017378;28;20399;-69
2021/03/27 03:21:12;;;;;;;5.63;3.50;;;;;;;;;;5016721;28;20513;-70
2021/03/27 03:24:00;;;;;;;7.63;3.83;;;;;;;;;;5016226;28;20538;-69
2021/03/27 03:26:29;;;;;;;6.23;3.70;;;;;;;;;;5016136;28;20442;-68
2021/03/27 03:29:01;;;;;;;5.47;3.40;;;;;;;;;;5016764;28;20430;-69
2021/03/27 03:31:46;;;;;;;5.23;3.70;;;;;;;;;;5016106;28;20441;-69
2021/03/27 03:34:12;;;;;;;4.63;2.93;;;;;;;;;;5016624;28;20469;-69
2021/03/27 03:36:41;;;;;;;4.10;3.27;;;;;;;;;;5015789;28;20425;-69
2021/03/27 03:39:16;;;;;;;7.70;3.70;;;;;;;;;;5016706;28;20406;-69
2021/03/27 03:41:51;;;;;;;4.10;3.00;;;;;;;;;;5015861;28;20489;-69
2021/03/27 03:44:32;;;;;;;7.07;4.03;;;;;;;;;;5016349;28;20428;-70
2021/03/27 03:47:03;;;;;;;6.07;4.10;;;;;;;;;;5015926;28;20429;-70
2021/03/27 03:49:29;;;;;;;5.20;3.60;;;;;;;;;;5015244;28;20426;-69
2021/03/27 03:52:04;;;;;;;8.77;4.33;;;;;;;;;;5015510;28;20962;-70
2021/03/27 03:54:56;;;;;;;6.60;3.57;;;;;;;;;;5016638;28;20489;-70
2021/03/27 03:57:30;;;;;;;6.43;3.50;;;;;;;;;;5015879;28;20533;-69
2021/03/27 04:00:03;;;;;;;5.97;4.43;;;;;;;;;;5016203;28;20408;-70
2021/03/27 04:02:31;;;;;;;5.30;4.07;;;;;;;;;;5015207;28;20431;-69
2021/03/27 04:05:20;;;;;;;6.00;4.07;;;;;;;;;;5016473;28;20498;-69
2021/03/27 04:07:54;;;;;;;6.77;4.20;;;;;;;;;;5015528;28;20507;-69
2021/03/27 04:10:22;;;;;;;9.00;4.33;;;;;;;;;;5015510;28;20400;-69
2021/03/27 04:13:01;;;;;;;7.77;4.30;;;;;;;;;;4996941;28;20463;-68
2021/03/27 04:15:34;;;;;;;6.50;4.13;;;;;;;;;;4997803;28;20395;-69
2021/03/27 04:18:05;;;;;;;8.00;4.43;;;;;;;;;;5015921;28;20414;-69
2021/03/27 04:20:44;;;;;;;13.70;5.33;;;;;;;;;;5013310;28;20428;-70
2021/03/27 04:23:42;;;;;;;5.50;4.10;;;;;;;;;;5015995;28;20439;-69
2021/03/27 04:26:27;;;;;;;5.77;3.73;;;;;;;;;;5013685;28;20923;-70
2021/03/27 04:28:53;;;;;;;6.80;4.57;;;;;;;;;;5015956;28;20402;-69
2021/03/27 04:31:38;;;;;;;7.63;4.93;;;;;;;;;;5014697;28;20973;-69
2021/03/27 04:34:09;;;;;;;7.43;4.30;;;;;;;;;;5015626;28;20486;-69
2021/03/27 04:36:44;;;;;;;8.63;5.63;;;;;;;;;;5014972;28;20462;-69
2021/03/27 04:39:19;;;;;;;5.83;4.40;;;;;;;;;;5015703;28;20945;-70
2021/03/27 04:41:51;;;;;;;7.73;4.27;;;;;;;;;;5014937;28;20857;-69
2021/03/27 04:44:17;;;;;;;12.50;4.53;;;;;;;;;;5015567;28;20422;-69
2021/03/27 04:46:50;;;;;;;6.23;4.37;;;;;;;;;;5014567;28;20488;-69
2021/03/27 04:49:27;;;;;;;8.20;4.63;;;;;;;;;;5015700;28;20397;-69
2021/03/27 04:52:02;;;;;;;7.47;4.93;;;;;;;;;;5014478;28;20437;-69
2021/03/27 04:54:37;;;;;;;6.20;4.63;;;;;;;;;;5014409;28;20467;-70
2021/03/27 04:57:21;;;;;;;4.93;3.77;;;;;;;;;;5014521;28;20428;-69
2021/03/27 04:59:51;;;;;;;5.57;4.70;;;;;;;;;;5015202;28;20436;-70
2021/03/27 05:02:19;;;;;;;6.70;4.10;;;;;;;;;;5014295;28;20428;-70
2021/03/27 05:05:00;;;;;;;5.57;3.83;;;;;;;;;;5014984;28;20412;-69
2021/03/27 05:07:45;;;;;;;6.37;4.60;;;;;;;;;;5012910;28;20440;-70
2021/03/27 05:10:14;;;;;;;5.03;3.70;;;;;;;;;;5016022;28;20422;-70
2021/03/27 05:12:59;;;;;;;9.97;4.70;;;;;;;;;;5014362;28;20453;-70
2021/03/27 05:15:27;;;;;;;11.20;6.10;;;;;;;;;;5015403;28;20766;-70
2021/03/27 05:18:08;;;;;;;8.63;5.40;;;;;;;;;;5014197;28;20863;-70
2021/03/27 05:20:36;;;;;;;7.60;4.60;;;;;;;;;;5013096;28;20818;-69
2021/03/27 05:23:02;;;;;;;9.63;6.27;;;;;;;;;;5013085;28;20463;-69
2021/03/27 05:25:51;;;;;;;9.03;5.30;;;;;;;;;;5014768;28;20891;-69
2021/03/27 05:28:35;;;;;;;10.70;5.67;;;;;;;;;;5012670;28;20434;-69
2021/03/27 05:31:07;;;;;;;9.47;5.60;;;;;;;;;;5014371;28;20413;-69
2021/03/27 05:33:40;;;;;;;8.40;5.10;;;;;;;;;;5012877;28;20853;-69
2021/03/27 05:36:17;;;;;;;11.27;5.70;;;;;;;;;;5015024;28;20765;-70
2021/03/27 05:38:47;;;;;;;13.53;6.07;;;;;;;;;;5014267;28;20493;-69
2021/03/27 05:41:16;;;;;;;11.37;5.97;;;;;;;;;;5014515;28;20426;-69
2021/03/27 05:44:12;;;;;;;10.57;6.10;;;;;;;;;;5013983;28;20835;-70
2021/03/27 05:46:38;;;;;;;10.10;5.90;;;;;;;;;;5004220;28;20830;-69
2021/03/27 05:49:12;;;;;;;7.70;5.93;;;;;;;;;;5014724;28;20420;-69
2021/03/27 05:51:50;;;;;;;10.43;6.23;;;;;;;;;;5014320;28;20394;-70
2021/03/27 05:54:22;;;;;;;9.87;6.23;;;;;;;;;;5014684;28;20462;-69
2021/03/27 05:56:48;;;;;;;9.90;6.30;;;;;;;;;;5014153;28;20443;-70
2021/03/27 05:59:32;;;;;;;10.10;7.20;;;;;;;;;;5013487;28;20513;-69
2021/03/27 06:02:01;;;;;;;9.77;6.63;;;;;;;;;;5013960;28;20426;-69
2021/03/27 06:04:48;;;;;;;11.97;6.30;;;;;;;;;;5014811;28;20839;-69
2021/03/27 06:07:14;;;;;;;9.00;5.60;;;;;;;;;;5013992;28;20429;-70
2021/03/27 06:09:43;;;;;;;8.77;5.63;;;;;;;;;;5014737;28;20946;-70
2021/03/27 06:12:12;;;;;;;13.70;6.20;;;;;;;;;;5014441;28;20457;-70
2021/03/27 06:14:41;;;;;;;8.40;5.10;;;;;;;;;;5015647;28;20544;-70
2021/03/27 06:17:26;;;;;;;7.80;4.70;;;;;;;;;;5018303;28;20453;-69
2021/03/27 06:20:02;;;;;;;12.30;4.63;;;;;;;;;;5031269;28;20455;-69
2021/03/27 06:22:31;;;;;;;8.63;4.33;;;;;;;;;;5017779;28;20506;-70
2021/03/27 06:25:16;;;;;;;7.77;4.17;;;;;;;;;;5014833;28;20411;-70
2021/03/27 06:27:48;;;;;;;5.53;3.37;;;;;;;;;;5014741;28;20433;-70
2021/03/27 06:30:33;;;;;;;4.30;3.23;;;;;;;;;;5014665;28;20403;-70
2021/03/27 06:33:10;;;;;;;5.87;2.70;;;;;;;;;;5013440;28;20452;-69
2021/03/27 06:35:49;;;;;;;4.07;2.90;;;;;;;;;;5014443;28;20406;-69
2021/03/27 06:38:32;;;;;;;4.00;2.60;;;;;;;;;;5013994;28;20439;-69
2021/03/27 06:41:05;;;;;;;4.97;2.90;;;;;;;;;;5014809;28;20441;-69
2021/03/27 06:43:31;;;;;;;3.23;2.30;;;;;;;;;;5013213;28;20541;-69
2021/03/27 06:46:01;;;;;;;3.70;2.70;;;;;;;;;;5014765;28;20448;-70
2021/03/27 06:48:48;;;;;;;5.60;2.60;;;;;;;;;;5013240;28;20423;-69
2021/03/27 06:51:23;;;;;;;4.57;2.80;;;;;;;;;;5014975;28;20396;-69
2021/03/27 06:53:55;;;;;;;3.80;2.20;;;;;;;;;;5013364;28;20473;-70
2021/03/27 06:56:33;;;;;;;3.70;2.50;;;;;;;;;;5013862;28;20480;-70
2021/03/27 06:59:04;;;;;;;7.10;2.50;;;;;;;;;;5013388;28;20430;-70
2021/03/27 07:01:48;;;;;;;3.70;2.20;;;;;;;;;;5014562;28;20418;-70
2021/03/27 07:04:14;;;;;;;4.63;2.90;;;;;;;;;;5014191;28;20976;-70
2021/03/27 07:06:43;;;;;;;4.03;2.30;;;;;;;;;;5012932;28;20407;-70
2021/03/27 07:09:27;;;;;;;4.60;2.90;;;;;;;;;;5011457;28;20434;-70
2021/03/27 07:12:02;;;;;;;4.90;2.90;;;;;;;;;;5011485;28;20429;-69
2021/03/27 07:14:47;;;;;;;4.80;2.30;;;;;;;;;;5011377;28;20495;-68
2021/03/27 07:17:30;;;;;;;3.87;2.80;;;;;;;;;;5013267;28;20537;-67
2021/03/27 07:19:59;;;;;;;5.65;2.45;;;;;;;;;;5012325;28;20414;-68
2021/03/27 07:22:26;;;;;;;5.43;3.13;;;;;;;;;;5013429;28;20555;-67
2021/03/27 07:25:11;;;;;;;5.83;2.60;;;;;;;;;;5012317;28;20430;-67
2021/03/27 07:27:42;;;;;;;4.13;1.80;;;;;;;;;;5011565;28;20437;-69
2021/03/27 07:30:17;;;;;;;4.67;2.13;;;;;;;;;;5014854;28;20413;-68
2021/03/27 07:33:09;;;;;;;4.90;2.67;;;;;;;;;;5011220;28;20423;-66
2021/03/27 07:35:55;;;;;;;3.67;2.40;;;;;;;;;;5000909;28;20648;-66
2021/03/27 07:38:33;;;;;;;4.73;2.90;;;;;;;;;;5013850;28;20500;-66
2021/03/27 07:41:18;;;;;;;6.80;2.53;;;;;;;;;;5015417;28;20925;-67
2021/03/27 07:44:10;;;;;;;4.47;2.40;;;;;;;;;;5009074;28;20446;-68
2021/03/27 07:46:54;;;;;;;2.93;1.53;;;;;;;;;;5013861;28;20390;-68
2021/03/27 07:49:23;;;;;;;1.80;1.37;;;;;;;;;;5012251;28;20579;-67
2021/03/27 07:51:55;;;;;;;3.07;1.37;;;;;;;;;;5013420;28;20786;-68
2021/03/27 07:54:40;;;;;;;2.17;1.10;;;;;;;;;;5011694;28;21113;-68
2021/03/27 07:57:44;;;;;;;2.57;1.17;;;;;;;;;;5016024;28;20470;-68
2021/03/27 08:00:43;;;;;;;1.87;1.00;;;;;;;;;;5016883;28;20492;-69
2021/03/27 08:03:27;;;;;;;3.83;1.53;;;;;;;;;;4978227;28;20452;-68
2021/03/27 08:05:53;;;;;;;1.93;1.00;;;;;;;;;;5016423;28;20405;-69
2021/03/27 08:08:38;;;;;;;4.80;1.37;;;;;;;;;;5015415;28;20496;-68
2021/03/27 08:11:16;;;;;;;1.70;1.10;;;;;;;;;;5014616;28;20457;-69
2021/03/27 08:13:42;;;;;;;2.17;1.10;;;;;;;;;;5014465;28;20480;-69
2021/03/27 08:16:08;;;;;;;2.10;1.20;;;;;;;;;;5016238;28;20415;-68
2021/03/27 08:18:34;;;;;;;2.27;1.20;;;;;;;;;;5015357;28;20428;-69
2021/03/27 08:21:05;;;;;;;2.57;1.20;;;;;;;;;;5016083;28;20425;-68
2021/03/27 08:23:34;;;;;;;1.80;1.03;;;;;;;;;;5013926;28;20455;-69
2021/03/27 08:26:19;;;;;;;1.57;1.10;;;;;;;;;;5015760;28;20405;-70
2021/03/27 08:28:47;;;;;;;3.70;1.60;;;;;;;;;;5014966;28;20432;-69
2021/03/27 08:31:27;;;;;;;1.80;1.10;;;;;;;;;;5015727;28;20464;-69
2021/03/27 08:33:59;;;;;;;1.83;1.07;;;;;;;;;;5014663;28;20491;-68
2021/03/27 08:36:44;;;;;;;1.50;1.00;;;;;;;;;;5015851;28;20408;-69
2021/03/27 08:39:10;;;;;;;1.60;1.10;;;;;;;;;;5014756;28;20435;-69
2021/03/27 08:41:51;;;;;;;3.30;1.23;;;;;;;;;;5015576;28;20940;-69
2021/03/27 08:44:35;;;;;;;2.37;1.43;;;;;;;;;;5014743;28;20476;-69
2021/03/27 08:47:20;;;;;;;2.03;1.20;;;;;;;;;;5014670;28;20820;-69
2021/03/27 08:50:04;;;;;;;2.90;1.10;;;;;;;;;;5014840;28;20479;-69
2021/03/27 08:52:38;;;;;;;4.33;1.50;;;;;;;;;;5015364;28;20413;-69
2021/03/27 08:55:23;;;;;;;2.30;1.40;;;;;;;;;;5015062;28;20458;-69
2021/03/27 08:58:04;;;;;;;1.53;1.07;;;;;;;;;;5015367;28;20874;-69
2021/03/27 09:00:49;;;;;;;1.50;0.97;;;;;;;;;;5015214;28;20438;-70
2021/03/27 09:03:42;;;;;;;2.57;1.10;;;;;;;;;;5014494;28;20472;-71
2021/03/27 09:06:37;;;;;;;2.27;1.27;;;;;;;;;;5015873;28;20746;-69
2021/03/27 09:09:21;;;;;;;2.20;1.13;;;;;;;;;;5004272;28;20438;-68
2021/03/27 09:12:03;;;;;;;2.80;1.00;;;;;;;;;;5015719;28;20398;-68
2021/03/27 09:14:29;;;;;;;2.60;1.23;;;;;;;;;;5014105;28;20465;-68
2021/03/27 09:17:14;;;;;;;1.57;1.00;;;;;;;;;;5015437;28;20491;-68
2021/03/27 09:19:48;;;;;;;1.60;1.00;;;;;;;;;;5015023;28;20778;-69
2021/03/27 09:22:20;;;;;;;3.23;1.20;;;;;;;;;;5015411;28;20453;-67
2021/03/27 09:25:05;;;;;;;2.97;1.17;;;;;;;;;;5017013;28;20914;-69
2021/03/27 09:27:43;;;;;;;2.43;1.17;;;;;;;;;;5017383;28;20907;-69
2021/03/27 09:30:29;;;;;;;3.83;1.50;;;;;;;;;;5017044;28;20427;-69
2021/03/27 09:33:05;;;;;;;2.20;1.30;;;;;;;;;;5017407;28;20469;-68
2021/03/27 09:35:43;;;;;;;2.60;1.30;;;;;;;;;;5015193;28;20437;-68
2021/03/27 09:38:09;;;;;;;1.97;1.20;;;;;;;;;;5016455;28;20895;-68
2021/03/27 09:40:54;;;;;;;2.33;1.30;;;;;;;;;;5014588;28;20454;-68
2021/03/27 09:43:26;;;;;;;1.70;1.37;;;;;;;;;;5014831;28;20477;-68
2021/03/27 09:45:52;;;;;;;1.70;1.10;;;;;;;;;;5014094;28;20462;-68
2021/03/27 09:48:27;;;;;;;2.40;1.30;;;;;;;;;;5015644;28;20421;-68
2021/03/27 09:51:12;;;;;;;2.40;1.20;;;;;;;;;;5014113;28;20428;-68
2021/03/27 09:53:46;;;;;;;2.60;1.47;;;;;;;;;;5014656;28;20516;-68
2021/03/27 09:56:17;;;;;;;4.40;1.00;;;;;;;;;;5014308;28;20496;-68
2021/03/27 09:58:57;;;;;;;2.23;1.37;;;;;;;;;;5014988;28;20402;-68
2021/03/27 10:01:25;;;;;;;1.60;0.90;;;;;;;;;;5014784;28;20814;-68
2021/03/27 10:03:57;;;;;;;1.90;1.03;;;;;;;;;;5014533;28;20517;-68
2021/03/27 10:06:46;;;;;;;1.67;1.10;;;;;;;;;;5013404;28;20517;-73
2021/03/27 10:09:31;;;;;;;2.63;0.97;;;;;;;;;;5005496;28;20432;-72
2021/03/27 10:12:01;;;;;;;1.87;1.20;;;;;;;;;;5009298;28;20450;-74
2021/03/27 10:14:29;;;;;;;2.50;0.90;;;;;;;;;;5013020;28;20889;-71
2021/03/27 10:16:59;;;;;;;1.77;1.03;;;;;;;;;;5014340;28;20172;-69
2021/03/27 10:19:25;;;;;;;1.60;0.90;;;;;;;;;;5012114;28;20427;-69
2021/03/27 10:21:54;;;;;;;4.40;1.00;;;;;;;;;;5014584;28;20419;-69
2021/03/27 10:24:23;;;;;;;1.33;0.73;;;;;;;;;;5014042;28;20491;-73
2021/03/27 10:26:49;;;;;;;2.53;1.00;;;;;;;;;;5012984;28;20185;-68
2021/03/27 10:29:43;;;;;;;3.90;1.20;;;;;;;;;;5014150;28;20422;-68
2021/03/27 10:32:18;;;;;;;3.10;1.70;;;;;;;;;;5009694;28;20507;-69
2021/03/27 10:34:47;;;;;;;2.65;1.20;;;;;;;;;;5000132;28;20431;-69
2021/03/27 10:37:31;;;;;;;2.17;1.00;;;;;;;;;;5014302;28;20682;-70
2021/03/27 10:40:20;;;;;;;1.50;0.93;;;;;;;;;;5012885;28;20927;-67
2021/03/27 10:42:53;;;;;;;2.93;1.33;;;;;;;;;;4996885;28;20448;-71
2021/03/27 10:45:27;;;;;;;2.00;1.00;;;;;;;;;;5014393;28;20435;-74
2021/03/27 10:48:05;;;;;;;1.97;1.00;;;;;;;;;;5004471;28;20431;-71
2021/03/27 10:50:41;;;;;;;2.00;1.20;;;;;;;;;;5012925;28;20488;-70
2021/03/27 10:53:19;;;;;;;1.70;1.00;;;;;;;;;;5014475;28;20487;-70
2021/03/27 10:55:57;;;;;;;1.60;1.03;;;;;;;;;;5007758;28;20430;-71
2021/03/27 10:58:44;;;;;;;4.13;1.70;;;;;;;;;;5011996;28;20398;-70
2021/03/27 11:01:16;;;;;;;3.43;1.10;;;;;;;;;;5011317;28;20430;-70
2021/03/27 11:03:52;;;;;;;4.30;1.30;;;;;;;;;;5014064;28;20431;-69
2021/03/27 11:06:27;;;;;;;2.00;1.20;;;;;;;;;;5012699;28;20434;-71
2021/03/27 11:09:11;;;;;;;2.73;1.20;;;;;;;;;;5018122;28;20842;-72
2021/03/27 11:11:39;;;;;;;3.27;1.17;;;;;;;;;;5017752;28;20454;-71
2021/03/27 11:14:24;;;;;;;2.67;1.00;;;;;;;;;;5013375;28;20529;-69
2021/03/27 11:17:02;;;;;;;4.07;1.17;;;;;;;;;;5010113;28;20954;-70
2021/03/27 11:19:47;;;;;;;4.77;1.27;;;;;;;;;;5012464;28;20408;-70
2021/03/27 11:22:26;;;;;;;2.10;0.97;;;;;;;;;;5012846;28;20983;-72
2021/03/27 11:24:55;;;;;;;4.20;1.10;;;;;;;;;;5010493;28;20430;-69
2021/03/27 11:27:21;;;;;;;1.57;0.97;;;;;;;;;;5003949;28;20745;-69
2021/03/27 11:29:57;;;;;;;1.63;1.10;;;;;;;;;;5013814;28;20437;-70
2021/03/27 11:32:23;;;;;;;3.87;1.10;;;;;;;;;;5004766;28;20480;-69
2021/03/27 11:34:57;;;;;;;2.30;1.30;;;;;;;;;;5004846;28;20468;-69
2021/03/27 11:37:26;;;;;;;3.57;1.50;;;;;;;;;;5017403;28;20377;-70
2021/03/27 11:39:57;;;;;;;2.03;1.13;;;;;;;;;;5016212;28;20787;-69
2021/03/27 11:42:26;;;;;;;2.20;1.37;;;;;;;;;;5017228;28;20773;-69
2021/03/27 11:44:58;;;;;;;1.70;1.00;;;;;;;;;;5000361;28;20434;-69
2021/03/27 11:47:31;;;;;;;2.70;1.60;;;;;;;;;;5017248;28;20887;-69
2021/03/27 11:50:03;;;;;;;2.00;1.23;;;;;;;;;;5015972;28;20458;-69
2021/03/27 11:52:37;;;;;;;2.70;1.07;;;;;;;;;;5016971;28;20423;-70
2021/03/27 11:55:12;;;;;;;1.92;1.10;;;;;;;;;;5013465;28;20927;-71
2021/03/27 11:57:46;;;;;;;1.83;1.27;;;;;;;;;;5014811;28;20414;-71
2021/03/27 12:03:13;;;;;;;2.43;1.10;;;;;;;;;;5012035;28;20477;-72
2021/03/27 12:05:54;;;;;;;3.13;1.37;;;;;;;;;;5014827;28;20427;-73
2021/03/27 12:08:28;;;;;;;6.43;1.03;;;;;;;;;;5014974;28;20540;-70
2021/03/27 12:10:54;;;;;;;2.33;1.10;;;;;;;;;;5011362;28;20418;-69
2021/03/27 12:13:31;;;;;;;2.00;1.30;;;;;;;;;;5014469;28;20539;-73
2021/03/27 12:16:06;;;;;;;5.90;1.40;;;;;;;;;;5015186;28;20413;-73
2021/03/27 12:18:53;;;;;;;1.40;1.00;;;;;;;;;;5015933;28;20975;-73
2021/03/27 12:21:57;;;;;;;2.23;1.30;;;;;;;;;;5014975;28;20430;-74
2021/03/27 12:24:30;;;;;;;2.93;1.47;;;;;;;;;;4974370;28;20439;-74
2021/03/27 12:27:08;;;;;;;4.23;1.47;;;;;;;;;;4973822;28;20431;-73
2021/03/27 12:29:36;;;;;;;3.00;1.10;;;;;;;;;;4999463;28;20414;-72
2021/03/27 12:32:06;;;;;;;1.80;1.10;;;;;;;;;;5015080;28;20781;-73
2021/03/27 12:34:40;;;;;;;3.73;1.60;;;;;;;;;;5014776;28;20499;-74
2021/03/27 12:37:09;;;;;;;6.07;1.27;;;;;;;;;;5014957;28;20827;-73
2021/03/27 12:39:38;;;;;;;6.13;1.20;;;;;;;;;;5015376;28;20415;-73
2021/03/27 12:42:14;;;;;;;2.13;1.23;;;;;;;;;;5014330;28;20513;-74
2021/03/27 12:44:43;;;;;;;3.93;1.30;;;;;;;;;;5016016;28;20424;-74
2021/03/27 12:47:18;;;;;;;2.10;1.10;;;;;;;;;;5014769;28;20458;-73
2021/03/27 12:49:56;;;;;;;2.87;1.27;;;;;;;;;;5015918;28;20406;-74
2021/03/27 12:52:42;;;;;;;3.63;1.40;;;;;;;;;;5014602;28;20437;-74
2021/03/27 12:55:08;;;;;;;2.90;1.10;;;;;;;;;;4996066;28;20448;-73
2021/03/27 12:57:46;;;;;;;2.17;1.00;;;;;;;;;;5009505;28;20977;-74
2021/03/27 13:00:30;;;;;;;3.97;1.20;;;;;;;;;;5015468;28;20385;-74
2021/03/27 13:03:17;;;;;;;3.43;1.37;;;;;;;;;;5014554;28;20450;-74
2021/03/27 13:05:44;;;;;;;1.80;1.00;;;;;;;;;;5015245;28;20510;-73
2021/03/27 13:08:16;;;;;;;3.60;1.43;;;;;;;;;;5013609;28;20468;-74
2021/03/27 13:10:47;;;;;;;5.33;1.77;;;;;;;;;;5015299;28;20962;-73
2021/03/27 13:13:13;;;;;;;2.20;1.23;;;;;;;;;;5014226;28;20951;-73
2021/03/27 13:15:41;;;;;;;3.03;1.63;;;;;;;;;;5015188;28;20407;-74
2021/03/27 13:18:29;;;;;;;2.93;1.10;;;;;;;;;;5014215;28;21000;-73
2021/03/27 13:20:57;;;;;;;3.83;1.20;;;;;;;;;;5015221;28;20396;-74
2021/03/27 13:23:36;;;;;;;2.30;1.17;;;;;;;;;;5014364;28;20450;-74
2021/03/27 13:26:06;;;;;;;1.80;1.20;;;;;;;;;;5014648;28;20391;-76
2021/03/27 13:28:37;;;;;;;2.33;1.27;;;;;;;;;;5014469;28;20431;-73
2021/03/27 13:31:21;;;;;;;3.00;1.33;;;;;;;;;;5014328;28;20409;-75
2021/03/27 13:33:52;;;;;;;3.00;1.20;;;;;;;;;;4995126;28;20461;-73
2021/03/27 13:36:18;;;;;;;2.20;1.33;;;;;;;;;;4995123;28;20431;-74
2021/03/27 13:38:59;;;;;;;2.87;1.33;;;;;;;;;;5014891;28;20855;-73
2021/03/27 13:41:25;;;;;;;3.87;1.20;;;;;;;;;;5012965;28;21762;-74
2021/03/27 13:43:56;;;;;;;2.50;1.40;;;;;;;;;;5013190;28;21004;-74
2021/03/27 13:46:32;;;;;;;3.37;1.60;;;;;;;;;;5013719;28;20392;-74
2021/03/27 13:49:01;;;;;;;2.60;1.50;;;;;;;;;;5015430;28;20422;-74
2021/03/27 13:51:56;;;;;;;3.13;1.47;;;;;;;;;;5013885;28;20492;-75
2021/03/27 13:54:32;;;;;;;3.93;1.40;;;;;;;;;;4994556;28;20558;-74
2021/03/27 13:57:04;;;;;;;5.80;1.43;;;;;;;;;;5014446;28;20521;-74
2021/03/27 13:59:45;;;;;;;4.07;1.43;;;;;;;;;;5015205;28;20456;-73
2021/03/27 14:02:20;;;;;;;4.07;1.57;;;;;;;;;;5006114;28;20459;-74
2021/03/27 14:04:49;;;;;;;2.70;1.50;;;;;;;;;;4995136;28;20441;-75
2021/03/27 14:07:33;;;;;;;2.77;1.30;;;;;;;;;;5002849;28;20762;-74
2021/03/27 14:10:02;;;;;;;3.57;1.27;;;;;;;;;;5014887;28;20798;-73
2021/03/27 14:12:31;;;;;;;2.47;1.30;;;;;;;;;;5013742;28;20427;-74
2021/03/27 14:15:10;;;;;;;2.20;1.30;;;;;;;;;;5013104;28;20459;-73
2021/03/27 14:17:45;;;;;;;2.97;1.13;;;;;;;;;;5012124;28;20793;-75
2021/03/27 14:20:23;;;;;;;2.30;1.27;;;;;;;;;;5014513;28;20450;-74
2021/03/27 14:22:49;;;;;;;2.40;1.50;;;;;;;;;;5013439;28;20513;-74
2021/03/27 14:25:16;;;;;;;4.07;1.10;;;;;;;;;;5014273;28;20406;-74
2021/03/27 14:27:48;;;;;;;3.90;1.50;;;;;;;;;;5013460;28;20431;-75
2021/03/27 14:30:14;;;;;;;3.90;1.70;;;;;;;;;;5014317;28;20735;-77
2021/03/27 14:33:10;;;;;;;2.00;1.27;;;;;;;;;;5013232;28;20450;-74
2021/03/27 14:35:45;;;;;;;3.93;1.60;;;;;;;;;;5014047;28;20396;-74
2021/03/27 14:38:11;;;;;;;4.03;1.50;;;;;;;;;;5014395;28;20444;-75
2021/03/27 14:40:55;;;;;;;3.27;1.30;;;;;;;;;;5021332;28;20424;-74
2021/03/27 14:43:34;;;;;;;1.90;1.20;;;;;;;;;;5016662;28;20507;-73
2021/03/27 14:46:11;;;;;;;2.67;1.20;;;;;;;;;;5013417;28;20430;-75
2021/03/27 14:48:39;;;;;;;2.60;1.27;;;;;;;;;;5014194;28;20439;-73
2021/03/27 14:51:08;;;;;;;4.30;1.60;;;;;;;;;;5014466;28;20404;-74
2021/03/27 14:53:45;;;;;;;3.73;1.40;;;;;;;;;;5012767;28;20973;-75
2021/03/27 14:56:17;;;;;;;2.00;1.20;;;;;;;;;;5045650;23;20517;-84
2021/03/27 14:58:52;;;;;;;2.47;1.53;;;;;;;;;;5046683;28;20452;-82
2021/03/27 15:01:28;;;;;;;3.67;1.30;;;;;;;;;;5057304;28;20397;-81
2021/03/27 15:03:58;;;;;;;2.47;1.50;;;;;;;;;;5069087;28;20499;-82
2021/03/27 15:06:43;;;;;;;10.03;2.00;;;;;;;;;;5074173;28;20417;-83
2021/03/27 15:11:51;;;;;;;2.87;1.20;;;;;;;;;;5034870;28;20609;-72
2021/03/27 15:14:32;;;;;;;2.47;1.23;;;;;;;;;;5037464;28;20811;-72
2021/03/27 15:17:17;;;;;;;1.80;1.23;;;;;;;;;;5033749;28;21033;-72
2021/03/27 15:19:45;;;;;;;4.40;1.70;;;;;;;;;;5017053;28;20464;-73
2021/03/27 15:22:11;;;;;;;2.30;1.40;;;;;;;;;;5022987;28;20430;-72
2021/03/27 15:27:15;;;;;;;2.33;1.20;;;;;;;;;;5034763;28;20426;-71
2021/03/27 15:27:32;;;;;;;2.30;1.13;;;;;;;;;;5036122;28;20840;-72
2021/03/27 15:30:11;;;;;;;3.80;1.80;;;;;;;;;;5037119;28;20822;-70
2021/03/27 15:32:45;;;;;;;2.97;1.60;;;;;;;;;;5037592;28;20444;-72
2021/03/27 15:35:25;;;;;;;2.63;1.30;;;;;;;;;;5036242;28;20472;-73
2021/03/27 15:37:51;;;;;;;10.47;1.63;;;;;;;;;;5035693;28;20428;-72
2021/03/27 15:40:20;;;;;;;3.70;1.17;;;;;;;;;;5036499;28;20429;-73